Terminal Aerodrome Forecast
Issued by NWS Twin Cities, MN

Home | Current Version | Previous Version | Graphics & Text | Print | Product List | Glossary On
Versions: 1 2 3 4 5 6 7 8 9 10 11 12 13 14 15
000
FTUS43 KMPX 241121
TAFSTC
TAF
KSTC 241121Z 2412/2512 28012G18KT P6SM -SN BKN027 OVC040
     FM241400 30017G26KT P6SM BKN025 BKN040
     FM241600 31018G28KT P6SM SCT030
     FM250000 31012KT P6SM FEW030 BKN150
     FM250500 01003KT P6SM OVC100=

USA.gov is the U.S. government's official web portal to all federal, state and local government web resources and services.